createdAt,value
2023-04-10T00:00:34.160Z,6.45
2023-04-10T00:05:30.283Z,7.03
2023-04-10T00:07:56.935Z,5.40
2023-04-10T00:10:23.503Z,9.85
2023-04-10T00:12:51.375Z,7.18
2023-04-10T00:15:17.814Z,6.63
2023-04-10T00:17:44.468Z,6.15
2023-04-10T00:20:11.399Z,6.72
2023-04-10T00:22:38.132Z,7.07
2023-04-10T00:25:06.558Z,6.18
2023-04-10T00:27:33.869Z,8.23
2023-04-10T00:30:00.864Z,6.50
2023-04-10T00:32:27.350Z,6.22
2023-04-10T00:34:53.955Z,8.93
2023-04-10T00:37:20.711Z,7.03
2023-04-10T00:39:47.156Z,7.53
2023-04-10T00:42:13.581Z,5.78
2023-04-10T00:44:41.421Z,6.45
2023-04-10T00:47:08.367Z,9.50
2023-04-10T00:49:34.971Z,6.97
2023-04-10T00:52:01.645Z,6.82
2023-04-10T00:54:28.808Z,5.95
2023-04-10T00:56:57.359Z,5.72
2023-04-10T00:59:24.033Z,6.78
2023-04-10T01:01:51.285Z,7.88
2023-04-10T01:04:18.118Z,5.82
2023-04-10T01:06:55.631Z,6.68
2023-04-10T01:09:58.957Z,5.30
2023-04-10T01:12:50.483Z,6.63
2023-04-10T01:15:20.374Z,7.82
2023-04-10T01:18:04.864Z,5.88
2023-04-10T01:20:39.397Z,6.20
2023-04-10T01:23:43.348Z,6.60
2023-04-10T01:26:17.446Z,6.60
2023-04-10T01:28:56.768Z,6.30
2023-04-10T01:31:44.258Z,6.00
2023-04-10T01:34:17.561Z,6.60
2023-04-10T01:36:59.360Z,4.95
2023-04-10T01:39:28.305Z,5.10
2023-04-10T01:41:57.897Z,7.45
2023-04-10T01:44:27.079Z,6.18
2023-04-10T01:46:56.355Z,5.55
2023-04-10T01:49:25.353Z,7.28
2023-04-10T01:51:54.330Z,5.15
2023-04-10T01:54:21.223Z,4.55
2023-04-10T01:56:47.805Z,6.85
2023-04-10T01:59:14.531Z,6.53
2023-04-10T02:01:41.165Z,5.97
2023-04-10T02:04:07.822Z,6.93
2023-04-10T02:07:02.904Z,5.53
2023-04-10T02:09:47.731Z,6.55
2023-04-10T02:12:23.109Z,6.70
2023-04-10T02:14:51.328Z,6.47
2023-04-10T02:17:23.494Z,8.00
2023-04-10T02:19:55.584Z,6.03
2023-04-10T02:22:23.660Z,6.75
2023-04-10T02:24:50.320Z,6.93
2023-04-10T02:27:16.759Z,6.53
2023-04-10T02:29:43.524Z,6.47
2023-04-10T02:32:10.696Z,5.90
2023-04-10T02:34:37.158Z,4.88
2023-04-10T02:37:04.166Z,5.75
2023-04-10T02:39:30.609Z,5.43
2023-04-10T02:41:56.978Z,4.30
2023-04-10T02:44:23.533Z,5.43
2023-04-10T02:46:49.994Z,6.82
2023-04-10T02:49:16.638Z,3.85
2023-04-10T02:51:43.064Z,4.00
2023-04-10T02:54:09.490Z,3.90
2023-04-10T02:56:35.963Z,3.90
2023-04-10T02:59:03.356Z,3.58
2023-04-10T03:01:29.992Z,3.88
2023-04-10T03:03:56.847Z,4.25
2023-04-10T03:06:27.456Z,4.25
2023-04-10T03:08:54.222Z,3.20
2023-04-10T03:11:20.792Z,2.72
2023-04-10T03:13:48.899Z,2.60
2023-04-10T03:16:17.431Z,3.53
2023-04-10T03:18:43.881Z,3.15
2023-04-10T03:21:10.583Z,2.67
2023-04-10T03:23:37.206Z,2.78
2023-04-10T03:26:05.797Z,2.50
2023-04-10T03:28:33.737Z,2.60
2023-04-10T03:31:00.743Z,2.42
2023-04-10T03:33:27.326Z,2.85
2023-04-10T03:35:53.993Z,4.32
2023-04-10T03:38:21.060Z,3.22
2023-04-10T03:40:47.482Z,1.77
2023-04-10T03:43:15.092Z,2.80
2023-04-10T03:45:42.622Z,2.73
2023-04-10T03:48:09.084Z,3.08
2023-04-10T03:50:35.593Z,3.67
2023-04-10T03:53:03.231Z,4.65
2023-04-10T03:55:30.838Z,2.35
2023-04-10T03:57:57.319Z,2.90
2023-04-10T04:00:24.970Z,3.85
2023-04-10T04:02:52.173Z,2.83
2023-04-10T04:05:18.980Z,3.88
2023-04-10T04:07:45.552Z,4.50
2023-04-10T04:10:14.980Z,2.85
2023-04-10T04:12:42.774Z,2.88
2023-04-10T04:15:09.849Z,2.83
2023-04-10T04:17:36.349Z,5.20
2023-04-10T04:20:03.988Z,3.38
2023-04-10T04:22:30.473Z,3.50
2023-04-10T04:24:56.869Z,2.97
2023-04-10T04:27:23.348Z,3.00
2023-04-10T04:29:49.862Z,2.35
2023-04-10T04:32:16.389Z,2.50
2023-04-10T04:34:42.944Z,2.53
2023-04-10T04:37:10.039Z,2.55
2023-04-10T04:39:36.459Z,3.53
2023-04-10T04:42:05.166Z,4.13
2023-04-10T04:44:32.113Z,2.85
2023-04-10T04:46:58.553Z,3.10
2023-04-10T04:49:25.643Z,3.55
2023-04-10T04:51:52.232Z,4.53
2023-04-10T04:54:18.715Z,3.22
2023-04-10T04:56:45.343Z,4.05
2023-04-10T04:59:11.898Z,5.18
2023-04-10T05:01:40.882Z,4.50
2023-04-10T05:04:07.813Z,4.82
2023-04-10T05:06:34.861Z,3.70
2023-04-10T05:09:01.644Z,4.95
2023-04-10T05:11:28.344Z,3.78
2023-04-10T05:13:54.949Z,3.40
2023-04-10T05:16:22.143Z,3.53
2023-04-10T05:18:48.825Z,7.43
2023-04-10T05:21:15.831Z,2.80
2023-04-10T05:23:42.794Z,4.00
2023-04-10T05:26:09.841Z,6.35
2023-04-10T05:28:36.337Z,5.38
2023-04-10T05:31:03.667Z,3.03
2023-04-10T05:33:30.370Z,4.13
2023-04-10T05:35:57.440Z,3.15
2023-04-10T05:38:24.752Z,3.25
2023-04-10T05:40:51.592Z,4.28
2023-04-10T05:43:18.537Z,2.60
2023-04-10T05:45:45.541Z,2.58
2023-04-10T05:48:13.166Z,2.30
2023-04-10T05:50:39.666Z,2.63
2023-04-10T05:53:06.936Z,4.32
2023-04-10T05:55:34.724Z,2.63
2023-04-10T05:58:01.621Z,2.90
2023-04-10T06:00:28.052Z,4.55
2023-04-10T06:02:54.560Z,3.28
2023-04-10T06:05:21.580Z,6.07
2023-04-10T06:07:48.197Z,4.50
2023-04-10T06:10:14.800Z,3.85
2023-04-10T06:12:41.648Z,5.88
2023-04-10T06:15:08.843Z,16.33
2023-04-10T06:17:35.451Z,24.63
2023-04-10T06:20:05.405Z,14.43
2023-04-10T06:22:33.838Z,7.90
2023-04-10T06:25:00.462Z,7.70
2023-04-10T06:27:29.310Z,9.95
2023-04-10T06:29:55.990Z,9.55
2023-04-10T06:32:22.884Z,8.88
2023-04-10T06:34:49.465Z,6.22
2023-04-10T06:37:16.155Z,5.80
2023-04-10T06:39:42.638Z,5.68
2023-04-10T06:42:09.162Z,6.00
2023-04-10T06:44:35.675Z,5.10
2023-04-10T06:47:02.312Z,3.78
2023-04-10T06:49:28.870Z,3.55
2023-04-10T06:51:55.987Z,6.80
2023-04-10T06:54:22.826Z,4.68
2023-04-10T06:56:49.520Z,6.45
2023-04-10T06:59:16.089Z,4.38
2023-04-10T07:01:42.615Z,3.83
2023-04-10T07:04:09.986Z,6.22
2023-04-10T07:06:41.606Z,6.18
2023-04-10T07:09:08.720Z,4.22
2023-04-10T07:11:36.432Z,4.40
2023-04-10T07:14:05.168Z,4.07
2023-04-10T07:16:33.950Z,6.00
2023-04-10T07:19:00.620Z,3.88
2023-04-10T07:29:17.863Z,6.13
2023-04-10T07:38:21.765Z,3.22
2023-04-10T07:55:35.904Z,1.90
2023-04-10T07:59:25.412Z,1.98
2023-04-10T19:51:16.232Z,4.20
2023-04-10T19:53:42.829Z,6.93
2023-04-10T19:56:09.713Z,4.57
2023-04-10T19:58:56.228Z,4.40
2023-04-10T20:01:24.208Z,3.65
2023-04-10T20:03:50.961Z,3.67
2023-04-10T20:06:17.597Z,3.97
2023-04-10T20:08:44.114Z,2.70
2023-04-10T20:11:33.140Z,2.72
2023-04-10T20:13:59.536Z,5.90
2023-04-10T20:16:26.988Z,3.50
2023-04-10T20:18:54.695Z,5.10
2023-04-10T20:21:21.824Z,3.15
2023-04-10T20:23:48.281Z,4.75
2023-04-10T20:26:14.953Z,3.35
2023-04-10T20:28:53.428Z,3.10
2023-04-10T20:31:20.363Z,3.95
2023-04-10T20:33:46.892Z,4.10
2023-04-10T20:36:13.706Z,4.40
2023-04-10T20:38:41.434Z,4.82
2023-04-10T20:41:15.055Z,3.43
2023-04-10T20:43:41.540Z,3.05
2023-04-10T20:46:08.893Z,3.10
2023-04-10T20:48:38.555Z,4.53
2023-04-10T20:51:06.489Z,3.00
2023-04-10T20:53:33.787Z,3.80
2023-04-10T20:56:00.290Z,3.83
2023-04-10T20:58:26.824Z,3.42
2023-04-10T21:00:53.891Z,4.60
2023-04-10T21:03:20.867Z,4.88
2023-04-10T21:05:47.463Z,2.75
2023-04-10T21:08:14.903Z,3.15
2023-04-10T21:10:44.500Z,5.53
2023-04-10T21:13:15.462Z,5.80
2023-04-10T21:15:42.557Z,3.70
2023-04-10T21:18:10.672Z,5.13
2023-04-10T21:20:37.284Z,6.18
2023-04-10T21:23:03.786Z,6.10
2023-04-10T21:25:31.698Z,3.40
2023-04-10T21:27:58.242Z,4.32
2023-04-10T21:30:24.687Z,4.65
2023-04-10T21:32:51.130Z,4.18
2023-04-10T21:35:17.596Z,3.53
2023-04-10T21:37:43.974Z,4.13
2023-04-10T21:40:10.556Z,4.00
2023-04-10T21:42:37.859Z,2.72
2023-04-10T21:45:34.967Z,4.10
2023-04-10T21:48:01.950Z,5.07
2023-04-10T21:50:28.580Z,4.80
2023-04-10T21:52:55.178Z,4.85
2023-04-10T21:55:22.133Z,4.38
2023-04-10T21:57:48.505Z,5.25
2023-04-10T22:00:41.492Z,4.38
2023-04-10T22:03:09.661Z,4.65
2023-04-10T22:05:50.085Z,4.15
2023-04-10T22:08:18.231Z,3.63
2023-04-10T22:10:45.585Z,4.13
2023-04-10T22:13:19.786Z,4.00
2023-04-10T22:15:54.360Z,4.55
2023-04-10T22:18:20.892Z,6.78
2023-04-10T22:20:47.293Z,4.15
2023-04-10T22:23:13.688Z,4.43
2023-04-10T22:25:40.358Z,7.72
2023-04-10T22:28:06.781Z,4.50
2023-04-10T22:30:34.162Z,4.28
2023-04-10T22:33:01.080Z,4.93
2023-04-10T22:35:27.686Z,3.30
2023-04-10T22:37:54.061Z,3.35
2023-04-10T22:40:20.498Z,2.47
2023-04-10T22:42:48.388Z,3.13
2023-04-10T22:45:15.550Z,3.20
2023-04-10T22:47:41.990Z,3.03
2023-04-10T22:50:15.375Z,3.35
2023-04-10T22:52:41.976Z,2.72
2023-04-10T22:55:39.253Z,4.95
2023-04-10T22:58:07.177Z,4.70
2023-04-10T23:00:47.985Z,3.65
2023-04-10T23:03:14.463Z,3.25
2023-04-10T23:05:40.836Z,2.40
2023-04-10T23:08:07.297Z,4.07
2023-04-10T23:10:33.707Z,4.70
2023-04-10T23:13:00.247Z,3.63
2023-04-10T23:15:27.061Z,4.47
2023-04-10T23:17:53.693Z,2.38
2023-04-10T23:20:20.415Z,3.00
2023-04-10T23:23:04.005Z,2.38
2023-04-10T23:25:30.486Z,1.90
2023-04-10T23:28:05.247Z,3.08
2023-04-10T23:30:38.917Z,2.63
2023-04-10T23:33:05.871Z,2.25
2023-04-10T23:35:32.306Z,1.55
2023-04-10T23:37:58.781Z,1.52
2023-04-10T23:40:25.329Z,2.22
2023-04-10T23:42:51.742Z,3.53
2023-04-10T23:45:18.331Z,1.65
2023-04-10T23:47:44.769Z,1.92
2023-04-10T23:50:17.840Z,1.73
2023-04-10T23:52:51.220Z,1.63
2023-04-10T23:55:18.463Z,2.22
2023-04-10T23:57:44.893Z,2.10
